createdAt,value
2018-09-12T00:00:51.876Z,99535.57
2018-09-12T00:03:20.159Z,99532.05
2018-09-12T00:05:48.426Z,99530.38
2018-09-12T00:08:16.696Z,99526.03
2018-09-12T00:10:44.976Z,99521.66
2018-09-12T00:13:13.300Z,99528.31
2018-09-12T00:15:41.710Z,99530.11
2018-09-12T00:18:09.983Z,99528.78
2018-09-12T00:20:39.103Z,99521.78
2018-09-12T00:23:07.378Z,99513.45
2018-09-12T00:25:35.674Z,99517.05
2018-09-12T00:28:03.959Z,99516.23
2018-09-12T00:30:32.338Z,99511.39
2018-09-12T00:33:00.623Z,99507.52
2018-09-12T00:35:29.014Z,99513.31
2018-09-12T00:37:57.282Z,99504.98
2018-09-12T00:40:25.534Z,99510.30
2018-09-12T00:42:53.822Z,99506.41
2018-09-12T00:45:22.194Z,99504.13
2018-09-12T00:47:50.475Z,99509.06
2018-09-12T00:50:18.728Z,99504.25
2018-09-12T00:52:47.003Z,99501.70
2018-09-12T00:55:15.298Z,99500.86
2018-09-12T00:57:43.631Z,99502.53
2018-09-12T01:00:12.250Z,99495.19
2018-09-12T01:02:51.239Z,99495.19
2018-09-12T01:05:19.526Z,99491.29
2018-09-12T01:07:47.947Z,99492.73
2018-09-12T01:10:16.315Z,99492.73
2018-09-12T01:12:44.659Z,99487.42
2018-09-12T01:15:13.545Z,99483.08
2018-09-12T01:17:41.834Z,99484.06
2018-09-12T01:20:10.111Z,99478.36
2018-09-12T01:22:38.400Z,99477.41
2018-09-12T01:25:06.667Z,99478.83
2018-09-12T01:27:34.979Z,99478.95
2018-09-12T01:30:03.304Z,99473.28
2018-09-12T01:32:31.583Z,99477.27
2018-09-12T01:34:59.854Z,99469.77
2018-09-12T01:37:28.181Z,99474.27
2018-09-12T01:39:56.573Z,99475.20
2018-09-12T01:42:24.863Z,99473.52
2018-09-12T01:44:53.179Z,99472.67
2018-09-12T01:47:21.459Z,99467.00
2018-09-12T01:49:49.771Z,99470.98
2018-09-12T01:52:18.031Z,99471.94
2018-09-12T01:54:46.346Z,99467.09
2018-09-12T01:57:14.598Z,99462.28
2018-09-12T01:59:42.870Z,99461.77
2018-09-12T02:02:11.243Z,99465.84
2018-09-12T02:04:39.575Z,99460.18
2018-09-12T02:07:07.849Z,99467.30
2018-09-12T02:09:36.179Z,99467.30
2018-09-12T02:12:04.454Z,99466.95
2018-09-12T02:14:32.766Z,99463.08
2018-09-12T02:17:01.071Z,99462.22
2018-09-12T02:19:29.370Z,99466.20
2018-09-12T02:21:57.666Z,99461.02
2018-09-12T02:24:25.981Z,99460.55
2018-09-12T02:26:54.366Z,99461.99
2018-09-12T02:29:22.678Z,99458.48
2018-09-12T02:31:50.962Z,99462.94
2018-09-12T02:34:19.247Z,99458.95
2018-09-12T02:36:47.515Z,99458.22
2018-09-12T02:39:15.810Z,99449.42
2018-09-12T02:41:44.206Z,99453.41
2018-09-12T02:44:12.534Z,99450.36
2018-09-12T02:46:40.798Z,99454.82
2018-09-12T02:49:09.091Z,99453.99
2018-09-12T02:51:37.383Z,99447.83
2018-09-12T02:54:05.907Z,99454.59
2018-09-12T02:56:34.163Z,99455.91
2018-09-12T02:59:02.478Z,99447.95
2018-09-12T03:01:30.747Z,99442.75
2018-09-12T03:03:59.145Z,99438.77
2018-09-12T03:06:27.411Z,99434.39
2018-09-12T03:08:55.751Z,99434.90
2018-09-12T03:11:24.088Z,99436.23
2018-09-12T03:13:52.382Z,99432.72
2018-09-12T03:16:20.643Z,99427.99
2018-09-12T03:18:49.250Z,99427.52
2018-09-12T03:21:17.531Z,99427.05
2018-09-12T03:23:45.811Z,99425.34
2018-09-12T03:26:14.084Z,99419.20
2018-09-12T03:28:42.363Z,99417.48
2018-09-12T03:31:10.710Z,99417.88
2018-09-12T03:33:38.990Z,99412.77
2018-09-12T03:36:07.255Z,99418.94
2018-09-12T03:38:35.690Z,99415.92
2018-09-12T03:41:04.011Z,99414.09
2018-09-12T03:43:32.306Z,99414.72
2018-09-12T03:46:00.726Z,99417.38
2018-09-12T03:48:28.986Z,99420.50
2018-09-12T03:50:57.359Z,99410.35
2018-09-12T03:53:26.650Z,99417.97
2018-09-12T03:55:54.938Z,99415.31
2018-09-12T03:58:23.195Z,99415.78
2018-09-12T04:00:51.501Z,99418.91
2018-09-12T04:03:19.779Z,99414.58
2018-09-12T04:05:48.103Z,99410.71
2018-09-12T04:08:16.406Z,99419.03
2018-09-12T04:10:44.747Z,99413.37
2018-09-12T04:13:13.040Z,99412.51
2018-09-12T04:15:41.322Z,99414.70
2018-09-12T04:18:09.640Z,99412.16
2018-09-12T04:20:37.942Z,99420.95
2018-09-12T04:23:06.211Z,99422.91
2018-09-12T04:25:34.486Z,99419.00
2018-09-12T04:28:02.850Z,99422.16
2018-09-12T04:30:31.149Z,99419.51
2018-09-12T04:32:59.699Z,99421.30
2018-09-12T04:35:28.014Z,99419.51
2018-09-12T04:37:56.318Z,99413.34
2018-09-12T04:40:24.627Z,99408.50
2018-09-12T04:42:52.956Z,99409.95
2018-09-12T04:45:21.214Z,99404.64
2018-09-12T04:47:49.518Z,99404.64
2018-09-12T04:50:17.853Z,99405.14
2018-09-12T04:52:46.134Z,99406.94
2018-09-12T04:55:14.494Z,99408.27
2018-09-12T04:57:42.778Z,99408.73
2018-09-12T05:00:11.145Z,99409.21
2018-09-12T05:02:39.442Z,99409.21
2018-09-12T05:05:07.726Z,99408.38
2018-09-12T05:07:35.994Z,99401.86
2018-09-12T05:10:04.349Z,99405.84
2018-09-12T05:12:33.214Z,99408.59
2018-09-12T05:15:01.518Z,99414.14
2018-09-12T05:17:29.863Z,99416.17
2018-09-12T05:19:58.142Z,99414.97
2018-09-12T05:22:26.393Z,99421.72
2018-09-12T05:24:54.702Z,99418.71
2018-09-12T05:27:23.015Z,99416.05
2018-09-12T05:29:51.328Z,99420.86
2018-09-12T05:32:19.630Z,99422.70
2018-09-12T05:34:47.943Z,99428.00
2018-09-12T05:37:16.232Z,99429.80
2018-09-12T05:39:44.547Z,99431.98
2018-09-12T05:42:12.859Z,99428.13
2018-09-12T05:44:41.206Z,99425.94
2018-09-12T05:47:09.502Z,99423.64
2018-09-12T05:49:37.860Z,99424.97
2018-09-12T05:52:06.603Z,99424.61
2018-09-12T05:54:34.915Z,99427.15
2018-09-12T05:57:03.232Z,99431.48
2018-09-12T05:59:31.507Z,99434.64
2018-09-12T06:01:59.887Z,99436.44
2018-09-12T06:04:28.207Z,99438.23
2018-09-12T06:06:56.609Z,99428.95
2018-09-12T06:09:24.919Z,99429.33
2018-09-12T06:11:53.299Z,99424.84
2018-09-12T06:14:21.671Z,99415.09
2018-09-12T06:16:49.999Z,99425.70
2018-09-12T06:19:18.310Z,99424.02
2018-09-12T06:21:46.686Z,99424.02
2018-09-12T06:24:15.043Z,99421.95
2018-09-12T06:26:43.325Z,99421.60
2018-09-12T06:29:11.599Z,99424.26
2018-09-12T06:31:39.922Z,99426.53
2018-09-12T06:34:08.307Z,99425.08
2018-09-12T06:36:36.627Z,99423.41
2018-09-12T06:39:07.919Z,99426.05
2018-09-12T06:41:36.306Z,99423.41
2018-09-12T06:44:04.727Z,99434.76
2018-09-12T06:46:33.063Z,99439.95
2018-09-12T06:49:01.427Z,99442.10
2018-09-12T06:51:29.843Z,99438.03
2018-09-12T06:53:58.124Z,99439.25
2018-09-12T06:56:26.502Z,99438.16
2018-09-12T06:58:54.810Z,99435.89
2018-09-12T07:01:23.106Z,99437.56
2018-09-12T07:03:51.435Z,99441.43
2018-09-12T07:06:19.833Z,99440.84
2018-09-12T07:08:48.101Z,99443.84
2018-09-12T07:11:16.397Z,99430.95
2018-09-12T07:13:44.657Z,99434.70
2018-09-12T07:16:13.666Z,99437.59
2018-09-12T07:18:41.962Z,99439.78
2018-09-12T07:21:10.258Z,99442.31
2018-09-12T07:23:38.526Z,99447.89
2018-09-12T07:26:07.007Z,99447.30
2018-09-12T07:28:35.271Z,99443.20
2018-09-12T07:31:03.550Z,99447.92
2018-09-12T07:33:31.823Z,99441.16
2018-09-12T07:36:00.123Z,99441.52
2018-09-12T07:38:28.410Z,99445.77
2018-09-12T07:40:56.719Z,99443.46
2018-09-12T07:43:24.993Z,99447.33
2018-09-12T07:45:53.279Z,99450.72
2018-09-12T07:48:21.596Z,99451.45
2018-09-12T07:50:50.534Z,99452.16
2018-09-12T07:53:19.467Z,99456.88
2018-09-12T07:55:47.802Z,99455.94
2018-09-12T07:58:16.606Z,99454.97
2018-09-12T08:00:44.868Z,99454.84
2018-09-12T08:03:13.171Z,99467.89
2018-09-12T08:05:41.459Z,99463.81
2018-09-12T08:08:09.763Z,99469.01
2018-09-12T08:10:38.056Z,99468.06
2018-09-12T08:13:06.455Z,99469.66
2018-09-12T08:15:34.766Z,99464.22
2018-09-12T08:18:03.090Z,99463.63
2018-09-12T08:20:31.355Z,99464.84
2018-09-12T08:22:59.705Z,99460.23
2018-09-12T08:25:27.958Z,99459.16
2018-09-12T08:27:56.234Z,99456.85
2018-09-12T08:30:24.523Z,99453.60
2018-09-12T08:32:52.894Z,99452.15
2018-09-12T08:35:21.180Z,99443.93
2018-09-12T08:37:49.562Z,99454.83
2018-09-12T08:40:17.911Z,99451.58
2018-09-12T08:42:46.266Z,99453.13
2018-09-12T08:45:14.562Z,99453.86
2018-09-12T08:47:42.921Z,99457.26
2018-09-12T08:50:11.163Z,99456.66
2018-09-12T08:52:39.646Z,99457.87
2018-09-12T08:55:08.056Z,99458.60
2018-09-12T08:57:36.382Z,99459.33
2018-09-12T09:00:04.995Z,99463.08
2018-09-12T09:02:33.391Z,99466.09
2018-09-12T09:05:01.727Z,99467.67
2018-09-12T09:07:29.989Z,99471.89
2018-09-12T09:09:58.370Z,99475.41
2018-09-12T09:12:26.675Z,99468.16
2018-09-12T09:14:54.969Z,99471.52
2018-09-12T09:17:23.300Z,99470.45
2018-09-12T09:19:51.695Z,99476.03
2018-09-12T09:22:20.064Z,99473.25
2018-09-12T09:24:48.366Z,99478.80
2018-09-12T09:27:16.654Z,99480.86
2018-09-12T09:29:44.939Z,99481.59
2018-09-12T09:32:13.259Z,99478.33
2018-09-12T09:34:41.556Z,99471.59
2018-09-12T09:37:09.955Z,99472.32
2018-09-12T09:39:38.299Z,99467.70
2018-09-12T09:42:06.640Z,99469.76
2018-09-12T09:44:35.987Z,99470.97
2018-09-12T09:47:04.259Z,99472.55
2018-09-12T09:49:32.674Z,99474.23
2018-09-12T09:52:00.961Z,99478.95
2018-09-12T09:54:29.317Z,99478.36
2018-09-12T09:56:57.587Z,99480.41
2018-09-12T09:59:25.958Z,99484.63
2018-09-12T10:01:59.935Z,99480.03
2018-09-12T10:04:33.434Z,99479.05
2018-09-12T10:07:07.059Z,99486.09
2018-09-12T10:09:35.348Z,99480.17
2018-09-12T10:12:04.230Z,99479.06
2018-09-12T10:14:32.699Z,99475.92
2018-09-12T10:17:01.035Z,99484.52
2018-09-12T10:19:29.353Z,99485.23
2018-09-12T10:21:57.646Z,99482.07
2018-09-12T10:24:26.344Z,99480.14
2018-09-12T10:26:54.661Z,99483.53
2018-09-12T10:29:22.955Z,99482.20
2018-09-12T10:31:51.242Z,99478.42
2018-09-12T10:34:19.618Z,99478.80
2018-09-12T10:36:47.888Z,99472.02
2018-09-12T10:39:16.223Z,99474.56
2018-09-12T10:41:44.650Z,99469.97
2018-09-12T10:44:12.983Z,99472.97
2018-09-12T10:46:41.258Z,99473.83
2018-09-12T10:49:09.587Z,99465.72
2018-09-12T10:51:37.915Z,99466.44
2018-09-12T10:54:07.122Z,99472.97
2018-09-12T10:56:35.414Z,99469.83
2018-09-12T10:59:03.772Z,99463.52
2018-09-12T11:01:32.063Z,99468.59
2018-09-12T11:04:00.374Z,99461.80
2018-09-12T11:06:28.690Z,99464.84
2018-09-12T11:08:56.999Z,99467.86
2018-09-12T11:11:25.303Z,99474.39
2018-09-12T11:13:53.711Z,99474.77
2018-09-12T11:16:22.063Z,99480.48
2018-09-12T11:18:50.490Z,99473.69
2018-09-12T11:21:18.786Z,99475.87
2018-09-12T11:23:47.116Z,99471.27
2018-09-12T11:26:15.395Z,99467.75
2018-09-12T11:28:43.747Z,99472.83
2018-09-12T11:31:12.044Z,99468.36
2018-09-12T11:33:40.369Z,99464.23
2018-09-12T11:36:08.967Z,99461.44
2018-09-12T11:38:37.294Z,99462.64
2018-09-12T11:41:05.634Z,99461.69
2018-09-12T11:43:33.966Z,99462.89
2018-09-12T11:46:03.247Z,99454.04
2018-09-12T11:48:31.978Z,99461.42
2018-09-12T11:51:00.246Z,99459.11
2018-09-12T11:53:28.526Z,99461.17
2018-09-12T11:55:56.814Z,99454.03
2018-09-12T11:58:25.091Z,99453.05
2018-09-12T12:00:53.396Z,99453.90
2018-09-12T12:03:21.695Z,99454.75
2018-09-12T12:05:50.003Z,99449.30
2018-09-12T12:08:18.291Z,99453.29
2018-09-12T12:10:46.634Z,99454.49
2018-09-12T12:13:14.895Z,99455.83
2018-09-12T12:15:43.166Z,99456.17
2018-09-12T12:18:11.554Z,99452.55
2018-09-12T12:20:39.847Z,99451.81
2018-09-12T12:23:08.138Z,99455.30
2018-09-12T12:25:36.738Z,99449.97
2018-09-12T12:28:05.131Z,99445.02
2018-09-12T12:30:33.408Z,99449.50
2018-09-12T12:33:01.788Z,99450.83
2018-09-12T12:35:30.322Z,99446.36
2018-09-12T12:37:58.579Z,99443.08
2018-09-12T12:40:26.954Z,99440.77
2018-09-12T12:42:55.303Z,99429.63
2018-09-12T12:45:23.682Z,99437.11
2018-09-12T12:47:51.990Z,99436.98
2018-09-12T12:50:20.299Z,99426.32
2018-09-12T12:52:48.618Z,99422.70
2018-09-12T12:55:16.998Z,99423.56
2018-09-12T12:57:45.258Z,99412.90
2018-09-12T13:00:13.542Z,99416.77
2018-09-12T13:02:41.910Z,99420.25
2018-09-12T13:05:10.203Z,99414.92
2018-09-12T13:07:39.486Z,99414.45
2018-09-12T13:10:07.803Z,99413.83
2018-09-12T13:12:36.149Z,99415.64
2018-09-12T13:15:04.667Z,99409.84
2018-09-12T13:17:33.059Z,99400.51
2018-09-12T13:20:01.434Z,99404.84
2018-09-12T13:22:29.695Z,99404.72
2018-09-12T13:24:58.058Z,99397.58
2018-09-12T13:27:26.399Z,99396.25
2018-09-12T13:29:54.662Z,99383.77
2018-09-12T13:32:22.950Z,99397.10
2018-09-12T13:34:51.291Z,99388.97
2018-09-12T13:37:19.591Z,99385.93
2018-09-12T13:39:47.909Z,99388.97
2018-09-12T13:42:16.199Z,99385.45
2018-09-12T13:44:44.519Z,99385.31
2018-09-12T13:47:12.804Z,99385.31
2018-09-12T13:49:41.117Z,99379.85
2018-09-12T13:52:09.477Z,99388.36
2018-09-12T13:54:37.764Z,99386.04
2018-09-12T13:57:06.115Z,99384.57
2018-09-12T13:59:34.378Z,99387.23
2018-09-12T14:02:02.662Z,99388.09
2018-09-12T14:04:30.983Z,99390.75
2018-09-12T14:06:59.591Z,99386.63
2018-09-12T14:09:27.951Z,99383.48
2018-09-12T14:11:56.282Z,99383.34
2018-09-12T14:14:24.590Z,99381.02
2018-09-12T14:16:52.883Z,99380.20
2018-09-12T14:19:21.317Z,99375.69
2018-09-12T14:21:49.571Z,99367.35
2018-09-12T14:24:17.868Z,99369.88
2018-09-12T14:26:46.177Z,99369.03
2018-09-12T14:29:14.542Z,99373.41
2018-09-12T14:31:42.829Z,99369.03
2018-09-12T14:34:11.187Z,99376.89
2018-09-12T14:36:39.498Z,99371.22
2018-09-12T14:39:08.546Z,99371.22
2018-09-12T14:41:36.851Z,99370.23
2018-09-12T14:44:05.187Z,99371.08
2018-09-12T14:46:33.514Z,99375.08
2018-09-12T14:49:01.793Z,99377.27
2018-09-12T14:51:30.151Z,99378.09
2018-09-12T14:53:58.401Z,99376.76
2018-09-12T14:56:26.708Z,99377.75
2018-09-12T14:58:54.994Z,99388.75
2018-09-12T15:01:23.283Z,99388.75
2018-09-12T15:03:51.558Z,99393.13
2018-09-12T15:06:19.883Z,99395.41
2018-09-12T15:08:48.156Z,99384.75
2018-09-12T15:11:16.482Z,99387.80
2018-09-12T15:13:44.779Z,99389.13
2018-09-12T15:16:13.102Z,99391.80
2018-09-12T15:18:41.413Z,99394.08
2018-09-12T15:21:09.782Z,99395.79
2018-09-12T15:23:38.166Z,99389.13
2018-09-12T15:26:06.462Z,99388.27
2018-09-12T15:28:41.318Z,99391.41
2018-09-12T15:31:09.602Z,99397.61
2018-09-12T15:33:37.988Z,99404.41
2018-09-12T15:36:06.311Z,99403.55
2018-09-12T15:38:34.638Z,99406.72
2018-09-12T15:41:02.980Z,99405.87
2018-09-12T15:43:31.263Z,99409.39
2018-09-12T15:45:59.564Z,99404.19
2018-09-12T15:48:27.863Z,99403.68
2018-09-12T15:50:56.152Z,99401.02
2018-09-12T15:53:24.458Z,99401.02
2018-09-12T15:55:53.539Z,99398.48
2018-09-12T15:58:21.955Z,99402.48
2018-09-12T16:00:50.165Z,99399.47
2018-09-12T16:03:18.479Z,99401.63
2018-09-12T16:05:46.866Z,99394.97
2018-09-12T16:08:15.151Z,99397.28
2018-09-12T16:10:43.414Z,99402.27
2018-09-12T16:13:11.794Z,99401.07
2018-09-12T16:15:40.170Z,99405.55
2018-09-12T16:18:08.501Z,99406.50
2018-09-12T16:20:36.787Z,99405.30
2018-09-12T16:23:05.301Z,99409.30
2018-09-12T16:25:33.551Z,99406.30
2018-09-12T16:28:01.886Z,99421.80
2018-09-12T16:30:30.151Z,99425.42
2018-09-12T16:32:58.490Z,99425.08
2018-09-12T16:35:26.720Z,99425.22
2018-09-12T16:37:55.750Z,99425.22
2018-09-12T16:40:24.193Z,99432.83
2018-09-12T16:42:52.462Z,99436.97
2018-09-12T16:45:20.751Z,99441.09
2018-09-12T16:47:49.051Z,99442.42
2018-09-12T16:50:17.415Z,99441.95
2018-09-12T16:52:45.699Z,99437.70
2018-09-12T16:55:13.995Z,99435.89
2018-09-12T16:57:42.275Z,99440.98
2018-09-12T17:00:10.666Z,99442.44
2018-09-12T17:02:38.950Z,99439.43
2018-09-12T17:05:07.326Z,99440.89
2018-09-12T17:07:35.690Z,99452.03
2018-09-12T17:10:04.071Z,99453.02
2018-09-12T17:12:32.435Z,99457.97
2018-09-12T17:15:00.703Z,99461.24
2018-09-12T17:17:29.590Z,99456.89
2018-09-12T17:19:57.871Z,99460.17
2018-09-12T17:22:26.146Z,99459.34
2018-09-12T17:24:54.416Z,99460.78
2018-09-12T17:27:22.718Z,99463.57
2018-09-12T17:29:50.990Z,99459.70
2018-09-12T17:32:19.360Z,99462.88
2018-09-12T17:34:47.630Z,99461.64
2018-09-12T17:37:15.947Z,99468.94
2018-09-12T17:39:44.291Z,99467.70
2018-09-12T17:42:12.614Z,99476.20
2018-09-12T17:44:40.966Z,99471.48
2018-09-12T17:47:09.287Z,99468.82
2018-09-12T17:49:37.585Z,99471.96
2018-09-12T17:52:06.122Z,99466.29
2018-09-12T17:54:34.423Z,99465.44
2018-09-12T17:57:03.410Z,99471.23
2018-09-12T18:06:01.469Z,99477.18
2018-09-12T18:08:29.750Z,99477.44
2018-09-12T18:10:58.101Z,99477.91
2018-09-12T18:13:26.386Z,99481.08
2018-09-12T18:15:54.642Z,99477.09
2018-09-12T18:18:22.955Z,99476.58
2018-09-12T18:20:51.301Z,99477.78
2018-09-12T18:23:19.615Z,99477.78
2018-09-12T18:25:47.903Z,99478.77
2018-09-12T18:28:16.187Z,99475.13
2018-09-12T18:30:44.511Z,99475.76
2018-09-12T18:33:12.954Z,99477.09
2018-09-12T18:35:41.370Z,99478.04
2018-09-12T18:38:09.674Z,99488.69
2018-09-12T18:40:37.949Z,99485.68
2018-09-12T18:43:06.472Z,99493.67
2018-09-12T18:45:34.711Z,99494.27
2018-09-12T18:48:03.111Z,99497.41
2018-09-12T18:50:31.517Z,99500.07
2018-09-12T18:53:00.291Z,99501.05
2018-09-12T18:55:28.661Z,99496.68
2018-09-12T18:57:57.106Z,99497.66
2018-09-12T19:00:25.614Z,99496.34
2018-09-12T19:02:54.003Z,99491.61
2018-09-12T19:05:22.366Z,99494.40
2018-09-12T19:08:21.247Z,99500.93
2018-09-12T19:10:49.732Z,99508.19
2018-09-12T19:13:18.127Z,99508.31
2018-09-12T19:15:46.471Z,99514.49
2018-09-12T19:18:14.947Z,99507.97
2018-09-12T19:20:43.172Z,99514.23
2018-09-12T19:23:11.572Z,99522.23
2018-09-12T19:25:39.867Z,99522.35
2018-09-12T19:28:08.174Z,99524.66
2018-09-12T19:30:36.440Z,99531.45
2018-09-12T19:33:04.895Z,99535.44
2018-09-12T19:35:33.183Z,99527.58
2018-09-12T19:38:01.582Z,99526.84
2018-09-12T19:40:29.975Z,99526.38
2018-09-12T19:42:58.334Z,99526.84
2018-09-12T19:45:26.730Z,99536.16
2018-09-12T19:47:55.111Z,99541.96
2018-09-12T19:50:23.550Z,99544.75
2018-09-12T19:52:51.861Z,99540.88
2018-09-12T19:55:20.379Z,99553.34
2018-09-12T19:57:48.779Z,99551.18
2018-09-12T20:00:18.506Z,99557.92
2018-09-12T20:02:46.927Z,99560.11
2018-09-12T20:05:15.346Z,99554.44
2018-09-12T20:07:43.650Z,99548.27
2018-09-12T20:10:12.810Z,99554.56
2018-09-12T20:12:41.452Z,99556.84
2018-09-12T20:15:09.891Z,99557.35
2018-09-12T20:17:38.190Z,99549.45
2018-09-12T20:20:06.474Z,99538.11
2018-09-12T20:22:34.766Z,99551.42
2018-09-12T20:25:03.169Z,99552.75
2018-09-12T20:27:31.454Z,99549.70
2018-09-12T20:29:59.822Z,99546.31
2018-09-12T20:32:28.117Z,99547.64
2018-09-12T20:34:56.451Z,99552.27
2018-09-12T20:37:24.811Z,99546.56
2018-09-12T20:39:53.219Z,99539.55
2018-09-12T20:42:21.532Z,99544.88
2018-09-12T20:44:49.859Z,99539.68
2018-09-12T20:47:18.186Z,99541.13
2018-09-12T20:49:46.628Z,99543.89
2018-09-12T20:52:15.015Z,99543.06
2018-09-12T20:54:43.294Z,99541.34
2018-09-12T20:57:11.594Z,99541.00
2018-09-12T20:59:39.910Z,99533.02
2018-09-12T21:02:08.298Z,99537.13
2018-09-12T21:04:36.636Z,99531.42
2018-09-12T21:07:05.072Z,99527.08
2018-09-12T21:09:33.390Z,99524.90
2018-09-12T21:12:01.714Z,99524.20
2018-09-12T21:14:30.014Z,99521.53
2018-09-12T21:16:58.335Z,99525.14
2018-09-12T21:19:26.699Z,99524.29
2018-09-12T21:21:55.102Z,99520.80
2018-09-12T21:24:23.402Z,99515.10
2018-09-12T21:26:51.697Z,99510.73
2018-09-12T21:29:20.019Z,99516.52
2018-09-12T21:31:48.297Z,99521.49
2018-09-12T21:34:16.587Z,99514.45
2018-09-12T21:36:44.881Z,99523.89
2018-09-12T21:39:13.198Z,99524.75
2018-09-12T21:41:41.531Z,99525.81
2018-09-12T21:44:09.878Z,99520.50
2018-09-12T21:46:38.163Z,99521.48
2018-09-12T21:49:06.494Z,99525.59
2018-09-12T21:51:34.782Z,99521.25
2018-09-12T21:54:03.071Z,99526.06
2018-09-12T21:56:31.378Z,99520.39
2018-09-12T21:58:59.690Z,99525.33
2018-09-12T22:01:27.974Z,99527.28
2018-09-12T22:03:56.302Z,99532.61
2018-09-12T22:06:24.706Z,99528.70
2018-09-12T22:08:53.081Z,99533.20
2018-09-12T22:11:21.529Z,99529.21
2018-09-12T22:13:49.791Z,99524.48
2018-09-12T22:16:18.083Z,99513.84
2018-09-12T22:18:46.374Z,99509.51
2018-09-12T22:21:14.706Z,99513.97
2018-09-12T22:23:42.995Z,99518.44
2018-09-12T22:26:11.283Z,99514.09
2018-09-12T22:28:39.586Z,99513.36
2018-09-12T22:31:07.994Z,99520.36
2018-09-12T22:33:36.254Z,99510.34
2018-09-12T22:36:04.563Z,99516.14
2018-09-12T22:38:32.828Z,99521.58
2018-09-12T22:41:01.126Z,99518.53
2018-09-12T22:43:29.439Z,99525.57
2018-09-12T22:45:57.747Z,99519.87
2018-09-12T22:48:26.035Z,99521.20
2018-09-12T22:50:55.134Z,99519.05
2018-09-12T22:53:23.467Z,99516.86
2018-09-12T22:55:51.749Z,99521.31
2018-09-12T22:58:20.155Z,99520.50
2018-09-12T23:00:54.677Z,99517.45
2018-09-12T23:03:22.955Z,99523.24
2018-09-12T23:05:51.230Z,99515.89
2018-09-12T23:08:19.537Z,99520.70
2018-09-12T23:10:48.584Z,99519.38
2018-09-12T23:13:16.926Z,99533.64
2018-09-12T23:15:45.248Z,99541.63
2018-09-12T23:18:13.575Z,99544.41
2018-09-12T23:20:41.877Z,99536.90
2018-09-12T23:23:10.139Z,99536.90
2018-09-12T23:25:38.522Z,99531.23
2018-09-12T23:28:06.810Z,99529.05
2018-09-12T23:30:35.077Z,99523.25
2018-09-12T23:33:03.394Z,99510.55
2018-09-12T23:35:31.715Z,99516.73
2018-09-12T23:38:00.047Z,99511.03
2018-09-12T23:40:29.018Z,99506.18
2018-09-12T23:42:57.399Z,99499.18
2018-09-12T23:45:25.658Z,99492.53
2018-09-12T23:47:53.938Z,99503.64
2018-09-12T23:50:22.202Z,99503.77
2018-09-12T23:52:50.500Z,99502.31
2018-09-12T23:55:18.794Z,99493.13
2018-09-12T23:57:47.090Z,99481.67
